createdAt,value
2019-05-30T00:00:14.869Z,12.207031
2019-05-30T00:01:05.727Z,12.207031
2019-05-30T00:02:05.719Z,12.227173
2019-05-30T00:03:05.803Z,12.247314
2019-05-30T00:04:05.791Z,12.277527
2019-05-30T00:05:05.866Z,12.297668
2019-05-30T00:06:05.964Z,12.297668
2019-05-30T00:07:05.961Z,12.31781
2019-05-30T00:08:05.985Z,12.327881
2019-05-30T00:09:06.004Z,12.358093
2019-05-30T00:10:06.026Z,12.358093
2019-05-30T00:11:06.014Z,12.368164
2019-05-30T00:12:06.175Z,12.388306
2019-05-30T00:13:06.348Z,12.398376
2019-05-30T00:14:06.430Z,12.428589
2019-05-30T00:15:06.624Z,12.468872
2019-05-30T00:16:06.537Z,12.499084
2019-05-30T00:17:06.671Z,12.509155
2019-05-30T00:18:06.725Z,12.539368
2019-05-30T00:19:06.745Z,12.549438
2019-05-30T00:20:06.892Z,12.609863
2019-05-30T00:21:06.920Z,12.630005
2019-05-30T00:22:06.950Z,12.650146
2019-05-30T00:23:07.023Z,12.660217
2019-05-30T00:24:08.232Z,12.69043
2019-05-30T00:25:07.074Z,12.720642
2019-05-30T00:26:07.540Z,12.730713
2019-05-30T00:27:08.183Z,12.750854
2019-05-30T00:28:07.547Z,12.760925
2019-05-30T00:29:07.248Z,12.781067
2019-05-30T00:30:23.043Z,12.831421
2019-05-30T00:31:08.731Z,12.841492
2019-05-30T00:32:07.818Z,12.861633
2019-05-30T00:33:07.469Z,12.871704
2019-05-30T00:34:07.509Z,12.881775
2019-05-30T00:35:07.655Z,12.901917
2019-05-30T00:36:07.799Z,12.911987
2019-05-30T00:37:07.799Z,12.911987
2019-05-30T00:38:07.801Z,12.9422
2019-05-30T00:39:07.851Z,12.952271
2019-05-30T00:40:07.823Z,12.9422
2019-05-30T00:41:08.000Z,12.9422
2019-05-30T00:42:07.989Z,12.952271
2019-05-30T00:43:08.162Z,12.952271
2019-05-30T00:44:08.228Z,12.982483
2019-05-30T00:45:19.781Z,12.982483
2019-05-30T00:46:08.221Z,12.982483
2019-05-30T00:47:08.223Z,12.992554
2019-05-30T00:48:08.371Z,12.992554
2019-05-30T00:49:08.400Z,12.992554
2019-05-30T00:50:08.475Z,13.012695
2019-05-30T00:51:08.502Z,13.022766
2019-05-30T00:52:08.671Z,13.032837
2019-05-30T00:53:08.749Z,13.052979
2019-05-30T00:54:09.786Z,13.063049
2019-05-30T00:55:08.842Z,13.063049
2019-05-30T00:56:08.844Z,13.052979
2019-05-30T00:57:08.924Z,13.052979
2019-05-30T00:58:08.920Z,13.032837
2019-05-30T00:59:09.087Z,13.063049
2019-05-30T01:00:09.145Z,13.063049
2019-05-30T01:01:09.093Z,13.083191
2019-05-30T01:02:09.238Z,13.052979
2019-05-30T01:03:09.397Z,13.063049
2019-05-30T01:04:09.394Z,13.063049
2019-05-30T01:05:09.392Z,13.052979
2019-05-30T01:06:09.385Z,13.063049
2019-05-30T01:07:09.378Z,13.083191
2019-05-30T01:08:09.435Z,13.063049
2019-05-30T01:09:09.487Z,13.063049
2019-05-30T01:10:09.543Z,13.083191
2019-05-30T01:11:09.589Z,13.093262
2019-05-30T01:12:09.660Z,13.083191
2019-05-30T01:13:09.725Z,13.083191
2019-05-30T01:14:10.871Z,13.093262
2019-05-30T01:15:09.891Z,13.093262
2019-05-30T01:16:09.869Z,13.123474
2019-05-30T01:17:09.888Z,13.123474
2019-05-30T01:18:09.889Z,13.123474
2019-05-30T01:19:09.916Z,13.133545
2019-05-30T01:20:10.138Z,13.133545
2019-05-30T01:21:10.090Z,13.133545
2019-05-30T01:22:10.117Z,13.163757
2019-05-30T01:23:10.132Z,13.163757
2019-05-30T01:24:10.193Z,13.173828
2019-05-30T01:25:10.245Z,13.173828
2019-05-30T01:26:10.246Z,13.173828
2019-05-30T01:27:10.226Z,13.19397
2019-05-30T01:28:10.381Z,13.204041
2019-05-30T01:29:10.488Z,13.214111
2019-05-30T01:30:10.669Z,13.204041
2019-05-30T01:31:11.626Z,13.214111
2019-05-30T01:32:10.823Z,13.214111
2019-05-30T01:33:10.910Z,13.214111
2019-05-30T01:34:11.061Z,13.204041
2019-05-30T01:35:11.114Z,13.204041
2019-05-30T01:36:11.145Z,13.204041
2019-05-30T01:37:11.149Z,13.204041
2019-05-30T01:38:11.283Z,13.214111
2019-05-30T01:39:11.426Z,13.234253
2019-05-30T01:40:11.539Z,13.234253
2019-05-30T01:41:11.605Z,13.234253
2019-05-30T01:42:11.792Z,13.234253
2019-05-30T01:43:11.791Z,13.234253
2019-05-30T01:44:11.807Z,13.244324
2019-05-30T01:45:11.984Z,13.244324
2019-05-30T01:46:11.974Z,13.244324
2019-05-30T01:47:12.008Z,13.234253
2019-05-30T01:48:12.016Z,13.274536
2019-05-30T01:49:12.008Z,13.274536
2019-05-30T01:50:12.029Z,13.274536
2019-05-30T01:51:12.080Z,13.274536
2019-05-30T01:52:12.075Z,13.274536
2019-05-30T01:53:12.083Z,13.264465
2019-05-30T01:54:12.233Z,13.284607
2019-05-30T01:55:12.247Z,13.274536
2019-05-30T01:56:12.356Z,13.274536
2019-05-30T01:57:12.344Z,13.284607
2019-05-30T01:58:12.496Z,13.284607
2019-05-30T01:59:12.636Z,13.284607
2019-05-30T02:00:20.452Z,13.304749
2019-05-30T02:01:22.086Z,13.284607
2019-05-30T02:02:12.821Z,13.284607
2019-05-30T02:03:12.812Z,13.304749
2019-05-30T02:04:12.950Z,13.284607
2019-05-30T02:05:12.953Z,13.304749
2019-05-30T02:06:13.086Z,13.284607
2019-05-30T02:07:13.060Z,13.284607
2019-05-30T02:08:13.248Z,13.304749
2019-05-30T02:09:13.199Z,13.284607
2019-05-30T02:10:13.333Z,13.284607
2019-05-30T02:11:13.511Z,13.314819
2019-05-30T02:12:13.516Z,13.314819
2019-05-30T02:13:13.670Z,13.314819
2019-05-30T02:14:13.811Z,13.314819
2019-05-30T02:15:13.952Z,13.304749
2019-05-30T02:16:14.120Z,13.304749
2019-05-30T02:17:14.087Z,13.304749
2019-05-30T02:18:14.210Z,13.284607
2019-05-30T02:19:14.346Z,13.274536
2019-05-30T02:20:14.469Z,13.274536
2019-05-30T02:21:14.641Z,13.264465
2019-05-30T02:22:14.628Z,13.234253
2019-05-30T02:23:14.765Z,13.234253
2019-05-30T02:24:14.918Z,13.214111
2019-05-30T02:25:14.890Z,13.204041
2019-05-30T02:26:15.074Z,13.19397
2019-05-30T02:27:15.199Z,13.204041
2019-05-30T02:28:16.311Z,13.204041
2019-05-30T02:29:15.452Z,13.19397
2019-05-30T02:30:15.601Z,13.19397
2019-05-30T02:31:15.681Z,13.173828
2019-05-30T02:32:16.671Z,13.173828
2019-05-30T02:33:15.751Z,13.163757
2019-05-30T02:34:15.835Z,13.163757
2019-05-30T02:35:15.888Z,13.133545
2019-05-30T02:36:15.945Z,13.163757
2019-05-30T02:37:15.979Z,13.133545
2019-05-30T02:38:16.006Z,13.163757
2019-05-30T02:39:16.055Z,13.133545
2019-05-30T02:40:16.129Z,13.173828
2019-05-30T02:41:16.149Z,13.19397
2019-05-30T02:42:16.239Z,13.19397
2019-05-30T02:43:16.298Z,13.19397
2019-05-30T02:44:16.358Z,13.19397
2019-05-30T02:45:16.410Z,13.19397
2019-05-30T02:46:16.461Z,13.19397
2019-05-30T02:47:22.043Z,13.214111
2019-05-30T02:48:16.660Z,13.234253
2019-05-30T02:49:16.727Z,13.244324
2019-05-30T02:50:16.800Z,13.244324
2019-05-30T02:51:16.853Z,13.244324
2019-05-30T02:52:16.957Z,13.264465
2019-05-30T02:53:17.010Z,13.284607
2019-05-30T02:54:17.114Z,13.284607
2019-05-30T02:55:17.158Z,13.314819
2019-05-30T02:56:17.219Z,13.314819
2019-05-30T02:57:17.321Z,13.314819
2019-05-30T02:58:17.379Z,13.334961
2019-05-30T02:59:17.427Z,13.334961
2019-05-30T03:00:18.277Z,13.355103
2019-05-30T03:01:17.561Z,13.365173
2019-05-30T03:02:18.055Z,13.355103
2019-05-30T03:03:17.740Z,13.385315
2019-05-30T03:04:17.789Z,13.395386
2019-05-30T03:05:17.819Z,13.415527
2019-05-30T03:06:17.883Z,13.425598
2019-05-30T03:07:18.111Z,13.465881
2019-05-30T03:08:18.064Z,13.486023
2019-05-30T03:09:18.115Z,13.486023
2019-05-30T03:10:18.173Z,13.516235
2019-05-30T03:11:18.235Z,13.516235
2019-05-30T03:12:18.300Z,13.516235
2019-05-30T03:13:18.422Z,13.546448
2019-05-30T03:14:19.659Z,13.546448
2019-05-30T03:15:18.542Z,13.566589
2019-05-30T03:16:18.631Z,13.57666
2019-05-30T03:17:18.700Z,13.57666
2019-05-30T03:18:18.787Z,13.57666
2019-05-30T03:19:18.858Z,13.596802
2019-05-30T03:20:22.463Z,13.606873
2019-05-30T03:21:18.967Z,13.596802
2019-05-30T03:22:19.036Z,13.606873
2019-05-30T03:23:19.149Z,13.616943
2019-05-30T03:24:19.306Z,13.606873
2019-05-30T03:25:19.368Z,13.616943
2019-05-30T03:26:19.423Z,13.616943
2019-05-30T03:27:19.503Z,13.616943
2019-05-30T03:28:19.600Z,13.616943
2019-05-30T03:29:19.681Z,13.637085
2019-05-30T03:30:27.152Z,13.647156
2019-05-30T03:31:27.607Z,13.647156
2019-05-30T03:32:58.796Z,13.667297
2019-05-30T03:33:37.227Z,13.647156
2019-05-30T03:34:27.203Z,13.667297
2019-05-30T03:35:28.150Z,13.667297
2019-05-30T03:36:29.054Z,13.677368
2019-05-30T03:37:28.354Z,13.667297
2019-05-30T03:38:20.183Z,13.667297
2019-05-30T03:39:20.230Z,13.677368
2019-05-30T03:40:21.170Z,13.707581
2019-05-30T03:41:20.349Z,13.69751
2019-05-30T03:42:20.461Z,13.69751
2019-05-30T03:43:20.603Z,13.727722
2019-05-30T03:44:20.729Z,13.707581
2019-05-30T03:45:20.803Z,13.727722
2019-05-30T03:46:20.865Z,13.727722
2019-05-30T03:47:20.929Z,13.727722
2019-05-30T03:48:21.009Z,13.727722
2019-05-30T03:49:21.216Z,13.747864
2019-05-30T03:50:21.098Z,13.757935
2019-05-30T03:51:21.196Z,13.757935
2019-05-30T03:52:21.307Z,13.747864
2019-05-30T03:53:21.312Z,13.757935
2019-05-30T03:54:21.386Z,13.788147
2019-05-30T03:55:21.372Z,13.778076
2019-05-30T03:56:21.506Z,13.818359
2019-05-30T03:57:21.607Z,13.82843
2019-05-30T03:58:21.749Z,13.848572
2019-05-30T03:59:21.850Z,13.848572
2019-05-30T04:00:21.871Z,13.868713
2019-05-30T04:01:21.878Z,13.888855
2019-05-30T04:02:22.023Z,13.868713
2019-05-30T04:03:22.152Z,13.868713
2019-05-30T04:04:22.326Z,13.908997
2019-05-30T04:05:22.357Z,13.939209
2019-05-30T04:06:22.478Z,13.939209
2019-05-30T04:07:22.606Z,13.94928
2019-05-30T04:08:22.754Z,13.979492
2019-05-30T04:09:25.020Z,13.999634
2019-05-30T04:10:22.781Z,14.029846
2019-05-30T04:11:22.769Z,14.029846
2019-05-30T04:12:22.883Z,14.029846
2019-05-30T04:13:22.894Z,14.039917
2019-05-30T04:14:23.051Z,14.049988
2019-05-30T04:15:23.072Z,14.070129
2019-05-30T04:16:23.185Z,14.0802
2019-05-30T04:17:23.185Z,14.0802
2019-05-30T04:18:23.332Z,14.110413
2019-05-30T04:19:23.399Z,14.120483
2019-05-30T04:20:23.558Z,14.130554
2019-05-30T04:21:23.603Z,14.160767
2019-05-30T04:22:23.737Z,14.160767
2019-05-30T04:23:23.914Z,14.150696
2019-05-30T04:24:23.933Z,14.110413
2019-05-30T04:25:24.041Z,14.049988
2019-05-30T04:26:24.086Z,14.029846
2019-05-30T04:27:24.155Z,13.979492
2019-05-30T04:28:24.255Z,13.969421
2019-05-30T04:29:24.342Z,13.94928
2019-05-30T04:30:24.465Z,13.94928
2019-05-30T04:31:24.484Z,13.929138
2019-05-30T04:32:24.577Z,13.908997
2019-05-30T04:33:32.260Z,13.939209
2019-05-30T04:34:24.847Z,13.929138
2019-05-30T04:35:24.987Z,13.939209
2019-05-30T04:36:24.938Z,13.939209
2019-05-30T04:37:24.927Z,13.939209
2019-05-30T04:38:24.916Z,13.939209
2019-05-30T04:39:25.012Z,13.94928
2019-05-30T04:40:25.106Z,13.969421
2019-05-30T04:41:25.133Z,13.979492
2019-05-30T04:42:25.139Z,13.999634
2019-05-30T04:43:25.160Z,14.009705
2019-05-30T04:44:25.217Z,14.009705
2019-05-30T04:45:27.775Z,14.039917
2019-05-30T04:46:25.250Z,14.039917
2019-05-30T04:47:25.269Z,14.049988
2019-05-30T04:48:25.289Z,14.070129
2019-05-30T04:49:25.298Z,14.070129
2019-05-30T04:50:25.312Z,14.120483
2019-05-30T04:51:25.354Z,14.130554
2019-05-30T04:52:25.360Z,14.130554
2019-05-30T04:53:25.360Z,14.160767
2019-05-30T04:54:25.408Z,14.180908
2019-05-30T04:55:25.468Z,14.180908
2019-05-30T04:56:25.518Z,14.221191
2019-05-30T04:57:27.082Z,14.231262
2019-05-30T04:58:25.692Z,14.261475
2019-05-30T04:59:25.770Z,14.301758
2019-05-30T05:00:25.815Z,14.311829
2019-05-30T05:01:25.898Z,14.342041
2019-05-30T05:02:26.028Z,14.372253
2019-05-30T05:03:43.870Z,14.382324
2019-05-30T05:04:26.183Z,14.382324
2019-05-30T05:05:27.105Z,14.412537
2019-05-30T05:06:26.435Z,14.442749
2019-05-30T05:07:27.483Z,14.442749
2019-05-30T05:08:26.550Z,14.45282
2019-05-30T05:09:26.553Z,14.45282
2019-05-30T05:10:26.590Z,14.493103
2019-05-30T05:11:26.649Z,14.513245
2019-05-30T05:12:26.735Z,14.523315
2019-05-30T05:13:26.801Z,14.533386
2019-05-30T05:14:26.843Z,14.553528
2019-05-30T05:15:26.910Z,14.563599
2019-05-30T05:16:35.218Z,14.58374
2019-05-30T05:17:28.114Z,14.593811
2019-05-30T05:18:27.139Z,14.624023
2019-05-30T05:19:28.177Z,14.624023
2019-05-30T05:20:27.222Z,14.634094
2019-05-30T05:21:27.215Z,14.634094
2019-05-30T05:22:27.271Z,14.634094
2019-05-30T05:23:27.261Z,14.634094
2019-05-30T05:24:27.278Z,14.674377
2019-05-30T05:25:27.288Z,14.674377
2019-05-30T05:26:27.337Z,14.70459
2019-05-30T05:27:27.513Z,14.70459
2019-05-30T05:28:27.531Z,14.70459
2019-05-30T05:29:27.580Z,14.734802
2019-05-30T05:30:27.583Z,14.734802
2019-05-30T05:31:27.599Z,14.744873
2019-05-30T05:32:27.651Z,14.765015
2019-05-30T05:33:27.738Z,14.765015
2019-05-30T05:34:27.771Z,14.775085
2019-05-30T05:35:27.800Z,14.785156
2019-05-30T05:36:27.817Z,14.815369
2019-05-30T05:37:27.837Z,14.855652
2019-05-30T05:38:28.488Z,14.865723
2019-05-30T05:39:28.370Z,14.885864
2019-05-30T05:40:28.501Z,14.885864
2019-05-30T05:41:28.585Z,14.885864
2019-05-30T05:42:28.877Z,14.916077
2019-05-30T05:43:28.666Z,14.936218
2019-05-30T05:44:28.691Z,14.966431
2019-05-30T05:45:28.750Z,14.996643
2019-05-30T05:46:28.705Z,15.067139
2019-05-30T05:47:28.776Z,15.097351
2019-05-30T05:48:28.777Z,15.117493
2019-05-30T05:49:28.842Z,15.117493
2019-05-30T05:50:28.744Z,15.117493
2019-05-30T05:51:29.006Z,15.167847
2019-05-30T05:52:29.109Z,15.177917
2019-05-30T05:53:29.056Z,15.187988
2019-05-30T05:54:29.219Z,15.228271
2019-05-30T05:55:29.126Z,15.258484
2019-05-30T05:56:29.127Z,15.258484
2019-05-30T05:57:29.148Z,15.268555
2019-05-30T05:58:29.308Z,15.288696
2019-05-30T05:59:29.268Z,15.298767
2019-05-30T06:00:29.535Z,15.328979
2019-05-30T06:01:30.067Z,15.359192
2019-05-30T06:02:28.313Z,15.369263
2019-05-30T06:03:28.366Z,15.389404
2019-05-30T06:04:28.373Z,15.439758
2019-05-30T06:05:28.502Z,15.469971
2019-05-30T06:06:31.348Z,15.469971
2019-05-30T06:07:28.632Z,15.500183
2019-05-30T06:08:28.480Z,15.480042
2019-05-30T06:09:28.761Z,15.480042
2019-05-30T06:10:28.522Z,15.500183
2019-05-30T06:11:28.882Z,15.510254
2019-05-30T06:12:28.546Z,15.520325
2019-05-30T06:13:29.573Z,15.520325
2019-05-30T06:14:28.585Z,15.520325
2019-05-30T06:15:29.035Z,15.550537
2019-05-30T06:16:28.592Z,15.570679
2019-05-30T06:17:29.300Z,15.59082
2019-05-30T06:18:28.627Z,15.570679
2019-05-30T06:19:43.162Z,15.59082
2019-05-30T06:20:28.654Z,15.600891
2019-05-30T06:21:28.664Z,15.570679
2019-05-30T06:22:28.689Z,15.59082
2019-05-30T06:23:28.733Z,15.600891
2019-05-30T06:24:28.798Z,15.631104
2019-05-30T06:25:32.420Z,15.651245
2019-05-30T06:26:28.824Z,15.661316
2019-05-30T06:27:28.832Z,15.671387
2019-05-30T06:28:28.841Z,15.701599
2019-05-30T06:29:28.910Z,15.721741
2019-05-30T06:30:28.918Z,15.731812
2019-05-30T06:31:28.944Z,15.782166
2019-05-30T06:32:28.972Z,15.802307
2019-05-30T06:33:29.180Z,15.83252
2019-05-30T06:34:38.256Z,15.84259
2019-05-30T06:35:29.468Z,15.852661
2019-05-30T06:36:29.345Z,15.84259
2019-05-30T06:37:30.168Z,15.84259
2019-05-30T06:38:30.181Z,15.812378
2019-05-30T06:39:29.646Z,15.812378
2019-05-30T06:40:30.780Z,15.83252
2019-05-30T06:41:29.811Z,15.84259
2019-05-30T06:42:30.277Z,15.872803
2019-05-30T06:43:30.270Z,15.882874
2019-05-30T06:44:30.207Z,15.882874
2019-05-30T06:45:30.367Z,15.903015
2019-05-30T06:46:30.548Z,15.903015
2019-05-30T06:47:30.483Z,15.913086
2019-05-30T06:48:30.856Z,15.923157
2019-05-30T06:49:31.012Z,15.943298
2019-05-30T06:50:30.897Z,15.96344
2019-05-30T06:51:31.076Z,15.983582
2019-05-30T06:52:29.810Z,16.003723
2019-05-30T06:53:29.823Z,16.003723
2019-05-30T06:54:29.901Z,16.003723
2019-05-30T06:55:29.889Z,16.023865
2019-05-30T06:56:29.910Z,16.033936
2019-05-30T06:57:29.897Z,16.033936
2019-05-30T06:58:45.469Z,16.054077
2019-05-30T06:59:30.079Z,16.064148
2019-05-30T07:00:30.210Z,16.064148
2019-05-30T07:01:30.231Z,16.064148
2019-05-30T07:02:30.495Z,16.054077
2019-05-30T07:03:30.649Z,16.054077
2019-05-30T07:04:46.787Z,16.08429
2019-05-30T07:05:31.926Z,16.08429
2019-05-30T07:06:31.549Z,16.124573
2019-05-30T07:07:31.373Z,16.134644
2019-05-30T07:08:30.875Z,16.184998
2019-05-30T07:09:30.957Z,16.235352
2019-05-30T07:10:31.076Z,16.275635
2019-05-30T07:11:30.971Z,16.285706
2019-05-30T07:12:31.151Z,16.305847
2019-05-30T07:13:31.616Z,16.356201
2019-05-30T07:14:31.439Z,16.366272
2019-05-30T07:15:31.385Z,16.396484
2019-05-30T07:16:31.481Z,16.366272
2019-05-30T07:17:31.486Z,16.356201
2019-05-30T07:18:33.625Z,16.315918
2019-05-30T07:19:31.640Z,16.33606
2019-05-30T07:20:31.674Z,16.315918
2019-05-30T07:21:31.750Z,16.315918
2019-05-30T07:22:31.848Z,16.356201
2019-05-30T07:23:32.004Z,16.356201
2019-05-30T07:24:32.208Z,16.356201
2019-05-30T07:25:31.922Z,16.356201
2019-05-30T07:26:31.903Z,16.33606
2019-05-30T07:27:31.997Z,16.356201
2019-05-30T07:28:32.005Z,16.356201
2019-05-30T07:29:32.093Z,16.386414
2019-05-30T07:30:32.028Z,16.366272
2019-05-30T07:31:32.201Z,16.406555
2019-05-30T07:32:32.127Z,16.406555
2019-05-30T07:33:32.883Z,16.456909
2019-05-30T07:34:32.152Z,16.547546
2019-05-30T07:35:32.035Z,16.638184
2019-05-30T07:36:32.297Z,16.678467
2019-05-30T07:37:32.342Z,16.71875
2019-05-30T07:38:32.603Z,16.738892
2019-05-30T07:39:34.843Z,16.759033
2019-05-30T07:40:32.785Z,16.759033
2019-05-30T07:41:33.250Z,16.769104
2019-05-30T07:42:32.690Z,16.759033
2019-05-30T07:43:33.378Z,16.738892
2019-05-30T07:44:32.834Z,16.71875
2019-05-30T07:45:33.036Z,16.728821
2019-05-30T07:46:33.011Z,16.759033
2019-05-30T07:47:32.216Z,16.728821
2019-05-30T07:48:34.265Z,16.728821
2019-05-30T07:49:32.415Z,16.658325
2019-05-30T07:50:32.523Z,16.58783
2019-05-30T07:51:32.681Z,16.547546
2019-05-30T07:52:32.659Z,16.507263
2019-05-30T07:53:32.781Z,16.567688
2019-05-30T07:54:33.022Z,16.638184
2019-05-30T07:55:33.119Z,16.658325
2019-05-30T07:56:33.447Z,16.728821
2019-05-30T07:57:32.919Z,16.759033
2019-05-30T07:58:33.326Z,16.829529
2019-05-30T07:59:32.604Z,16.859741
2019-05-30T08:00:33.553Z,16.819458
2019-05-30T08:01:32.657Z,16.8396
2019-05-30T08:02:33.612Z,16.889954
2019-05-30T08:03:32.773Z,16.940308
2019-05-30T08:04:34.026Z,16.97052
2019-05-30T08:05:32.741Z,16.990662
2019-05-30T08:06:33.817Z,16.990662
2019-05-30T08:07:32.745Z,16.980591
2019-05-30T08:08:33.848Z,16.97052
2019-05-30T08:09:32.946Z,16.980591
2019-05-30T08:10:33.922Z,16.950378
2019-05-30T08:11:32.958Z,16.910095
2019-05-30T08:12:34.069Z,16.819458
2019-05-30T08:13:33.135Z,16.728821
2019-05-30T08:14:33.255Z,16.658325
2019-05-30T08:15:33.472Z,16.58783
2019-05-30T08:16:33.296Z,16.567688
2019-05-30T08:17:33.665Z,16.547546
2019-05-30T08:18:33.722Z,16.577759
2019-05-30T08:19:34.280Z,16.58783
2019-05-30T08:20:33.902Z,16.618042
2019-05-30T08:21:34.206Z,16.607971
2019-05-30T08:22:34.137Z,16.618042
2019-05-30T08:23:34.226Z,16.618042
2019-05-30T08:24:34.383Z,16.678467
2019-05-30T08:25:34.229Z,16.688538
2019-05-30T08:26:34.290Z,16.678467
2019-05-30T08:27:34.324Z,16.71875
2019-05-30T08:28:34.280Z,16.759033
2019-05-30T08:29:34.347Z,16.769104
2019-05-30T08:30:34.550Z,16.829529
2019-05-30T08:31:34.505Z,16.869812
2019-05-30T08:32:34.526Z,16.97052
2019-05-30T08:33:33.666Z,17.020874
2019-05-30T08:34:34.574Z,17.041016
2019-05-30T08:35:43.227Z,16.910095
2019-05-30T08:36:34.909Z,16.889954
2019-05-30T08:37:35.060Z,16.910095
2019-05-30T08:38:35.164Z,16.889954
2019-05-30T08:39:35.149Z,16.869812
2019-05-30T08:40:35.272Z,16.889954
2019-05-30T08:41:35.344Z,16.920166
2019-05-30T08:42:35.332Z,16.940308
2019-05-30T08:43:35.454Z,17.010803
2019-05-30T08:44:35.547Z,16.990662
2019-05-30T08:45:35.665Z,17.010803
2019-05-30T08:46:35.740Z,17.010803
2019-05-30T08:47:35.952Z,17.071228
2019-05-30T08:48:34.681Z,17.121582
2019-05-30T08:49:34.690Z,17.10144
2019-05-30T08:50:34.726Z,17.121582
2019-05-30T08:51:34.842Z,17.10144
2019-05-30T08:52:34.890Z,17.071228
2019-05-30T08:53:34.951Z,17.051086
2019-05-30T08:54:34.985Z,17.051086
2019-05-30T08:55:35.011Z,17.09137
2019-05-30T08:56:35.015Z,17.121582
2019-05-30T08:57:35.120Z,17.171936
2019-05-30T08:58:35.117Z,17.272644
2019-05-30T08:59:35.151Z,17.282715
2019-05-30T09:00:35.280Z,17.34314
2019-05-30T09:01:35.762Z,17.34314
2019-05-30T09:02:36.550Z,17.413635
2019-05-30T09:03:35.794Z,17.463989
2019-05-30T09:04:35.758Z,17.47406
2019-05-30T09:05:35.924Z,17.524414
2019-05-30T09:06:35.832Z,17.524414
2019-05-30T09:07:36.384Z,17.443848
2019-05-30T09:08:35.996Z,17.443848
2019-05-30T09:09:36.077Z,17.463989
2019-05-30T09:10:35.931Z,17.443848
2019-05-30T09:11:35.861Z,17.373352
2019-05-30T09:12:36.388Z,17.322998
2019-05-30T09:13:35.970Z,17.312927
2019-05-30T09:14:37.287Z,17.192078
2019-05-30T09:15:37.430Z,17.131653
2019-05-30T09:16:36.015Z,17.10144
2019-05-30T09:17:36.028Z,17.131653
2019-05-30T09:18:36.819Z,17.22229
2019-05-30T09:19:37.876Z,17.312927
2019-05-30T09:20:37.868Z,17.423706
2019-05-30T09:21:36.802Z,17.534485
2019-05-30T09:22:37.902Z,17.625122
2019-05-30T09:23:37.324Z,17.685547
2019-05-30T09:24:37.450Z,17.796326
2019-05-30T09:25:37.175Z,17.866821
2019-05-30T09:26:38.405Z,17.897034
2019-05-30T09:27:37.720Z,17.897034
2019-05-30T09:28:37.713Z,17.876892
2019-05-30T09:29:37.828Z,17.776184
2019-05-30T09:30:38.184Z,17.685547
2019-05-30T09:31:38.046Z,17.655334
2019-05-30T09:32:38.326Z,17.645264
2019-05-30T09:33:38.056Z,17.685547
2019-05-30T09:34:38.300Z,17.685547
2019-05-30T09:35:38.462Z,17.645264
2019-05-30T09:36:39.368Z,17.625122
2019-05-30T09:37:38.688Z,17.524414
2019-05-30T09:38:37.494Z,17.504272
2019-05-30T09:39:37.652Z,17.564697
2019-05-30T09:40:37.729Z,17.544556
2019-05-30T09:41:37.720Z,17.59491
2019-05-30T09:42:37.723Z,17.645264
2019-05-30T09:43:37.744Z,17.494202
2019-05-30T09:44:37.805Z,17.393494
2019-05-30T09:45:37.791Z,17.35321
2019-05-30T09:46:37.832Z,17.312927
2019-05-30T09:47:37.839Z,17.312927
2019-05-30T09:50:32.359Z,17.312927
2019-05-30T09:51:32.362Z,17.34314
2019-05-30T09:52:32.373Z,17.35321
2019-05-30T09:53:32.379Z,17.35321
2019-05-30T09:54:32.412Z,17.393494
2019-05-30T09:55:32.439Z,17.413635
2019-05-30T09:56:32.427Z,17.413635
2019-05-30T09:57:32.432Z,17.443848
2019-05-30T09:58:32.452Z,17.47406
2019-05-30T09:59:32.479Z,17.47406
2019-05-30T10:00:32.476Z,17.463989
2019-05-30T10:01:32.485Z,17.463989
2019-05-30T10:02:32.499Z,17.47406
2019-05-30T10:03:32.478Z,17.47406
2019-05-30T10:04:32.517Z,17.504272
2019-05-30T10:05:32.506Z,17.494202
2019-05-30T10:06:32.653Z,17.47406
2019-05-30T10:07:32.653Z,17.47406
2019-05-30T10:08:32.665Z,17.494202
2019-05-30T10:09:32.785Z,17.494202
2019-05-30T10:10:32.845Z,17.47406
2019-05-30T10:11:32.851Z,17.494202
2019-05-30T10:12:32.848Z,17.524414
2019-05-30T10:13:32.890Z,17.524414
2019-05-30T10:14:32.912Z,17.504272
2019-05-30T10:15:32.932Z,17.443848
2019-05-30T10:16:33.985Z,17.383423
2019-05-30T10:17:34.077Z,17.35321
2019-05-30T10:18:33.084Z,17.383423
2019-05-30T10:19:34.093Z,17.423706
2019-05-30T10:20:33.164Z,17.463989
2019-05-30T10:21:34.247Z,17.504272
2019-05-30T10:22:33.237Z,17.524414
2019-05-30T10:23:34.247Z,17.574768
2019-05-30T10:24:33.334Z,17.60498
2019-05-30T10:25:34.448Z,17.655334
2019-05-30T10:26:34.464Z,17.655334
2019-05-30T10:27:33.511Z,17.625122
2019-05-30T10:28:34.551Z,17.574768
2019-05-30T10:29:33.592Z,17.59491
2019-05-30T10:30:34.666Z,17.625122
2019-05-30T10:31:33.692Z,17.60498
2019-05-30T10:32:33.708Z,17.564697
2019-05-30T10:33:34.716Z,17.524414
2019-05-30T10:34:33.869Z,17.463989
2019-05-30T10:35:34.933Z,17.443848
2019-05-30T10:36:43.680Z,17.47406
2019-05-30T10:37:34.078Z,17.544556
2019-05-30T10:38:34.072Z,17.59491
2019-05-30T10:39:34.101Z,17.655334
2019-05-30T10:40:34.135Z,17.645264
2019-05-30T10:41:34.283Z,17.675476
2019-05-30T10:42:34.306Z,17.685547
2019-05-30T10:43:34.318Z,17.756042
2019-05-30T10:44:34.330Z,17.816467
2019-05-30T10:45:38.400Z,17.907104
2019-05-30T10:46:34.390Z,17.947388
2019-05-30T10:47:34.387Z,17.9776
2019-05-30T10:48:34.382Z,17.9776
2019-05-30T10:49:35.285Z,18.048096
2019-05-30T10:50:34.538Z,18.148804
2019-05-30T10:51:34.605Z,18.299866
2019-05-30T10:52:34.644Z,18.48114
2019-05-30T10:53:37.377Z,18.672485
2019-05-30T10:54:34.665Z,18.763123
2019-05-30T10:55:34.663Z,18.702698
2019-05-30T10:56:34.703Z,18.783264
2019-05-30T10:57:34.817Z,18.823547
2019-05-30T10:58:34.828Z,18.883972
2019-05-30T10:59:34.850Z,18.894043
2019-05-30T11:00:34.860Z,18.914185
2019-05-30T11:01:34.946Z,18.813477
2019-05-30T11:02:34.941Z,18.612061
2019-05-30T11:03:34.955Z,18.48114
2019-05-30T11:04:35.111Z,18.491211
2019-05-30T11:05:36.168Z,18.521423
2019-05-30T11:06:35.238Z,18.410645
2019-05-30T11:07:36.258Z,18.299866
2019-05-30T11:08:36.247Z,18.279724
2019-05-30T11:09:35.245Z,18.330078
2019-05-30T11:10:35.274Z,18.390503
2019-05-30T11:11:35.312Z,18.491211
2019-05-30T11:12:35.351Z,18.48114
2019-05-30T11:13:36.378Z,18.491211
2019-05-30T11:14:35.379Z,18.531494
2019-05-30T11:15:36.392Z,18.581848
2019-05-30T11:16:35.551Z,18.511353
2019-05-30T11:17:36.572Z,18.48114
2019-05-30T11:18:35.877Z,18.430786
2019-05-30T11:19:35.655Z,18.410645
2019-05-30T11:20:35.693Z,18.360291
2019-05-30T11:21:35.731Z,18.279724
2019-05-30T11:22:35.813Z,18.299866
2019-05-30T11:23:35.850Z,18.340149
2019-05-30T11:24:35.865Z,18.330078
2019-05-30T11:25:35.871Z,18.279724
2019-05-30T11:26:35.922Z,18.239441
2019-05-30T11:27:35.976Z,18.148804
2019-05-30T11:28:36.014Z,18.128662
2019-05-30T11:29:36.037Z,18.128662